createdAt,value
2022-10-23T00:00:23.821Z,1014.30
2022-10-23T00:01:27.238Z,1014.28
2022-10-23T00:02:30.439Z,1014.28
2022-10-23T00:04:05.896Z,1014.28
2022-10-23T00:05:08.912Z,1014.29
2022-10-23T00:06:11.645Z,1014.32
2022-10-23T00:07:46.548Z,1014.35
2022-10-23T00:08:49.355Z,1014.36
2022-10-23T00:09:51.989Z,1014.33
2022-10-23T00:11:26.662Z,1014.35
2022-10-23T00:12:29.538Z,1014.35
2022-10-23T00:13:33.258Z,1014.38
2022-10-23T00:15:07.709Z,1014.30
2022-10-23T00:16:10.785Z,1014.34
2022-10-23T00:17:13.712Z,1014.35
2022-10-23T00:18:48.509Z,1014.34
2022-10-23T00:19:52.277Z,1014.32
2022-10-23T00:20:55.192Z,1014.35
2022-10-23T00:22:29.976Z,1014.36
2022-10-23T00:23:33.013Z,1014.33
2022-10-23T00:24:36.082Z,1014.35
2022-10-23T00:26:10.690Z,1014.28
2022-10-23T00:27:13.411Z,1014.31
2022-10-23T00:28:16.399Z,1014.21
2022-10-23T00:29:51.252Z,1014.25
2022-10-23T00:30:54.036Z,1014.25
2022-10-23T00:31:57.055Z,1014.23
2022-10-23T00:33:31.543Z,1014.23
2022-10-23T00:34:34.661Z,1014.21
2022-10-23T00:35:37.691Z,1014.16
2022-10-23T00:37:12.601Z,1014.14
2022-10-23T00:38:15.426Z,1014.16
2022-10-23T00:39:18.228Z,1014.15
2022-10-23T00:40:53.201Z,1014.19
2022-10-23T00:41:56.089Z,1014.18
2022-10-23T00:42:59.172Z,1014.14
2022-10-23T00:44:33.680Z,1014.17
2022-10-23T00:45:36.375Z,1014.17
2022-10-23T00:46:39.024Z,1014.21
2022-10-23T00:48:13.604Z,1014.23
2022-10-23T00:49:16.557Z,1014.22
2022-10-23T00:50:20.974Z,1014.26
2022-10-23T00:51:55.570Z,1014.22
2022-10-23T00:52:58.299Z,1014.23
2022-10-23T00:54:30.938Z,1014.25
2022-10-23T00:56:05.522Z,1014.25
2022-10-23T00:57:08.313Z,1014.24
2022-10-23T00:58:11.621Z,1014.31
2022-10-23T00:59:46.215Z,1014.32
2022-10-23T01:00:23.675Z,1014.32
2022-10-23T01:01:27.001Z,1014.32
2022-10-23T01:02:31.640Z,1014.31
2022-10-23T01:04:07.175Z,1014.30
2022-10-23T01:05:09.951Z,1014.25
2022-10-23T01:06:12.845Z,1014.27
2022-10-23T01:07:47.785Z,1014.19
2022-10-23T01:08:50.776Z,1014.15
2022-10-23T01:09:53.779Z,1014.08
2022-10-23T01:11:28.349Z,1014.07
2022-10-23T01:12:31.182Z,1014.02
2022-10-23T01:13:34.292Z,1014.00
2022-10-23T01:15:09.007Z,1014.04
2022-10-23T01:16:11.753Z,1014.03
2022-10-23T01:17:14.503Z,1014.03
2022-10-23T01:18:49.106Z,1014.02
2022-10-23T01:19:51.819Z,1014.01
2022-10-23T01:20:54.536Z,1014.03
2022-10-23T01:22:29.198Z,1014.01
2022-10-23T01:23:32.716Z,1013.98
2022-10-23T01:24:35.588Z,1014.03
2022-10-23T01:26:10.285Z,1014.06
2022-10-23T01:27:13.099Z,1014.00
2022-10-23T01:28:15.857Z,1014.07
2022-10-23T01:29:50.422Z,1013.98
2022-10-23T01:30:53.178Z,1013.97
2022-10-23T01:31:55.912Z,1013.95
2022-10-23T01:33:31.592Z,1013.92
2022-10-23T01:34:34.395Z,1013.93
2022-10-23T01:35:37.493Z,1013.90
2022-10-23T01:37:12.124Z,1013.88
2022-10-23T01:38:14.846Z,1013.83
2022-10-23T01:39:17.860Z,1013.81
2022-10-23T01:40:52.526Z,1013.77
2022-10-23T01:41:55.459Z,1013.81
2022-10-23T01:42:58.212Z,1013.80
2022-10-23T01:44:32.764Z,1013.80
2022-10-23T01:45:35.557Z,1013.82
2022-10-23T01:46:38.285Z,1013.85
2022-10-23T01:48:12.877Z,1013.86
2022-10-23T01:49:15.660Z,1013.87
2022-10-23T01:50:18.532Z,1013.82
2022-10-23T01:51:53.216Z,1013.80
2022-10-23T01:52:55.949Z,1013.80
2022-10-23T01:53:58.686Z,1013.78
2022-10-23T01:55:33.738Z,1013.77
2022-10-23T01:56:36.844Z,1013.78
2022-10-23T01:57:39.847Z,1013.76
2022-10-23T01:59:14.640Z,1013.81
2022-10-23T02:00:23.009Z,1013.81
2022-10-23T02:01:26.641Z,1013.74
2022-10-23T02:02:30.491Z,1013.75
2022-10-23T02:04:05.149Z,1013.67
2022-10-23T02:05:07.936Z,1013.65
2022-10-23T02:06:10.758Z,1013.64
2022-10-23T02:07:46.257Z,1013.62
2022-10-23T02:08:49.168Z,1013.61
2022-10-23T02:09:51.900Z,1013.62
2022-10-23T02:11:26.764Z,1013.58
2022-10-23T02:12:29.862Z,1013.54
2022-10-23T02:13:32.552Z,1013.55
2022-10-23T02:15:07.453Z,1013.60
2022-10-23T02:16:10.390Z,1013.55
2022-10-23T02:17:13.240Z,1013.54
2022-10-23T02:18:48.067Z,1013.51
2022-10-23T02:19:50.832Z,1013.51
2022-10-23T02:20:53.685Z,1013.51
2022-10-23T02:22:28.637Z,1013.48
2022-10-23T02:23:31.761Z,1013.45
2022-10-23T02:24:38.487Z,1013.41
2022-10-23T02:26:13.298Z,1013.37
2022-10-23T02:27:16.226Z,1013.33
2022-10-23T02:28:18.935Z,1013.33
2022-10-23T02:29:53.649Z,1013.37
2022-10-23T02:30:56.467Z,1013.37
2022-10-23T02:31:59.254Z,1013.37
2022-10-23T02:33:34.613Z,1013.32
2022-10-23T02:34:37.353Z,1013.31
2022-10-23T02:35:40.051Z,1013.36
2022-10-23T02:37:14.902Z,1013.30
2022-10-23T02:38:18.646Z,1013.30
2022-10-23T02:39:21.560Z,1013.35
2022-10-23T02:40:56.024Z,1013.29
2022-10-23T02:41:58.776Z,1013.28
2022-10-23T02:43:01.574Z,1013.25
2022-10-23T02:44:36.514Z,1013.23
2022-10-23T02:46:42.194Z,1013.20
2022-10-23T02:48:16.954Z,1013.21
2022-10-23T02:49:19.730Z,1013.11
2022-10-23T02:50:22.646Z,1013.14
2022-10-23T02:51:57.302Z,1013.15
2022-10-23T02:53:00.136Z,1013.16
2022-10-23T02:54:02.972Z,1013.14
2022-10-23T02:55:37.745Z,1013.15
2022-10-23T02:56:44.316Z,1013.13
2022-10-23T02:57:47.722Z,1013.15
2022-10-23T02:59:22.626Z,1013.12
2022-10-23T03:00:23.900Z,1013.12
2022-10-23T03:01:27.506Z,1013.08
2022-10-23T03:04:06.505Z,1013.12
2022-10-23T03:05:09.187Z,1013.13
2022-10-23T03:06:11.971Z,1013.16
2022-10-23T03:07:47.074Z,1013.15
2022-10-23T03:08:49.821Z,1013.14
2022-10-23T03:09:52.455Z,1013.13
2022-10-23T03:11:27.285Z,1013.12
2022-10-23T03:12:30.027Z,1013.08
2022-10-23T03:13:33.423Z,1012.99
2022-10-23T03:15:08.211Z,1013.01
2022-10-23T03:16:10.982Z,1013.01
2022-10-23T03:17:13.910Z,1012.98
2022-10-23T03:18:48.493Z,1013.02
2022-10-23T03:19:51.438Z,1013.09
2022-10-23T03:20:54.470Z,1013.10
2022-10-23T03:22:29.163Z,1013.03
2022-10-23T03:23:32.562Z,1013.00
2022-10-23T03:24:35.643Z,1013.03
2022-10-23T03:26:10.329Z,1012.99
2022-10-23T03:27:13.271Z,1012.98
2022-10-23T03:28:16.563Z,1012.96
2022-10-23T03:29:51.193Z,1012.91
2022-10-23T03:30:53.851Z,1012.92
2022-10-23T03:31:56.756Z,1012.85
2022-10-23T03:33:32.210Z,1012.82
2022-10-23T03:34:35.274Z,1012.83
2022-10-23T03:35:38.094Z,1012.83
2022-10-23T03:37:13.114Z,1012.78
2022-10-23T03:38:15.836Z,1012.77
2022-10-23T03:39:18.846Z,1012.75
2022-10-23T03:40:53.882Z,1012.75
2022-10-23T03:41:57.097Z,1012.74
2022-10-23T03:42:59.805Z,1012.71
2022-10-23T03:44:34.577Z,1012.71
2022-10-23T03:45:37.352Z,1012.74
2022-10-23T03:46:39.986Z,1012.76
2022-10-23T03:48:14.620Z,1012.85
2022-10-23T03:49:17.290Z,1012.85
2022-10-23T03:50:19.909Z,1012.83
2022-10-23T03:51:54.567Z,1012.87
2022-10-23T03:52:57.703Z,1012.85
2022-10-23T03:54:00.564Z,1012.85
2022-10-23T03:55:35.122Z,1012.83
2022-10-23T03:56:37.981Z,1012.82
2022-10-23T03:57:45.424Z,1012.78
2022-10-23T03:59:19.927Z,1012.78
2022-10-23T04:00:23.153Z,1012.71
2022-10-23T04:01:26.591Z,1012.70
2022-10-23T04:02:30.679Z,1012.69
2022-10-23T04:04:06.451Z,1012.70
2022-10-23T04:05:52.449Z,1012.69
2022-10-23T04:06:55.962Z,1012.70
2022-10-23T04:07:59.323Z,1012.67
2022-10-23T04:09:38.330Z,1012.66
2022-10-23T04:10:41.654Z,1012.64
2022-10-23T04:11:44.629Z,1012.63
2022-10-23T04:13:19.605Z,1012.60
2022-10-23T04:14:22.477Z,1012.56
2022-10-23T04:15:25.476Z,1012.62
2022-10-23T04:17:00.370Z,1012.65
2022-10-23T04:18:03.186Z,1012.61
2022-10-23T04:19:06.126Z,1012.64
2022-10-23T04:20:40.694Z,1012.66
2022-10-23T04:21:43.692Z,1012.68
2022-10-23T04:22:47.342Z,1012.65
2022-10-23T04:24:22.091Z,1012.64
2022-10-23T04:25:24.790Z,1012.61
2022-10-23T04:26:28.223Z,1012.59
2022-10-23T04:28:03.041Z,1012.54
2022-10-23T04:29:05.954Z,1012.52
2022-10-23T04:30:10.458Z,1012.52
2022-10-23T04:31:45.282Z,1012.46
2022-10-23T04:32:48.141Z,1012.44
2022-10-23T04:33:50.920Z,1012.41
2022-10-23T04:35:25.773Z,1012.36
2022-10-23T04:36:28.867Z,1012.35
2022-10-23T04:37:31.931Z,1012.36
2022-10-23T04:39:07.124Z,1012.35
2022-10-23T04:40:09.982Z,1012.31
2022-10-23T04:41:12.857Z,1012.34
2022-10-23T04:42:48.621Z,1012.31
2022-10-23T04:43:51.486Z,1012.28
2022-10-23T04:44:54.283Z,1012.30
2022-10-23T04:46:28.896Z,1012.33
2022-10-23T04:47:31.666Z,1012.31
2022-10-23T04:48:39.747Z,1012.30
2022-10-23T04:50:14.604Z,1012.26
2022-10-23T04:51:17.533Z,1012.22
2022-10-23T04:52:20.664Z,1012.19
2022-10-23T04:53:55.229Z,1012.16
2022-10-23T04:54:58.042Z,1012.14
2022-10-23T04:56:01.141Z,1012.14
2022-10-23T04:57:35.679Z,1012.11
2022-10-23T04:58:38.547Z,1012.09
2022-10-23T04:59:41.636Z,1012.10
2022-10-23T05:00:23.695Z,1012.10
2022-10-23T05:01:27.443Z,1012.07
2022-10-23T05:02:30.946Z,1012.06
2022-10-23T05:04:06.194Z,1012.01
2022-10-23T05:05:08.994Z,1012.05
2022-10-23T05:06:11.728Z,1012.03
2022-10-23T05:07:46.885Z,1012.01
2022-10-23T05:08:50.021Z,1012.01
2022-10-23T05:09:52.748Z,1011.99
2022-10-23T05:11:27.377Z,1011.97
2022-10-23T05:12:30.460Z,1012.03
2022-10-23T05:13:33.552Z,1011.98
2022-10-23T05:15:14.412Z,1012.01
2022-10-23T05:16:17.281Z,1011.94
2022-10-23T05:17:20.341Z,1011.95
2022-10-23T05:18:55.060Z,1011.94
2022-10-23T05:19:58.059Z,1011.95
2022-10-23T05:21:01.264Z,1011.91
2022-10-23T05:22:36.273Z,1011.91
2022-10-23T05:23:39.188Z,1011.83
2022-10-23T05:24:43.324Z,1011.86
2022-10-23T05:26:20.641Z,1011.89
2022-10-23T05:27:23.463Z,1011.87
2022-10-23T05:28:26.752Z,1011.79
2022-10-23T05:30:01.406Z,1011.74
2022-10-23T05:31:04.473Z,1011.75
2022-10-23T05:32:07.427Z,1011.78
2022-10-23T05:33:42.767Z,1011.78
2022-10-23T05:34:45.754Z,1011.81
2022-10-23T05:35:48.533Z,1011.80
2022-10-23T05:37:22.986Z,1011.81
2022-10-23T05:38:25.946Z,1011.81
2022-10-23T05:39:28.618Z,1011.77
2022-10-23T05:41:03.259Z,1011.82
2022-10-23T05:42:06.324Z,1011.84
2022-10-23T05:43:09.412Z,1011.85
2022-10-23T05:44:44.127Z,1011.84
2022-10-23T05:45:46.860Z,1011.84
2022-10-23T05:46:49.749Z,1011.85
2022-10-23T05:48:41.476Z,1011.86
2022-10-23T05:49:45.617Z,1011.89
2022-10-23T05:50:48.518Z,1011.87
2022-10-23T05:52:23.271Z,1011.91
2022-10-23T05:53:26.594Z,1011.94
2022-10-23T05:54:34.160Z,1011.93
2022-10-23T05:56:08.839Z,1011.94
2022-10-23T05:57:11.921Z,1012.00
2022-10-23T05:58:14.872Z,1011.94
2022-10-23T05:59:49.463Z,1011.92
2022-10-23T06:00:23.454Z,1011.92
2022-10-23T06:01:26.517Z,1011.93
2022-10-23T06:02:30.514Z,1011.89
2022-10-23T06:04:05.543Z,1011.86
2022-10-23T06:05:08.560Z,1011.87
2022-10-23T06:06:11.870Z,1011.83
2022-10-23T06:07:47.537Z,1011.85
2022-10-23T06:08:50.414Z,1011.78
2022-10-23T06:09:53.333Z,1011.77
2022-10-23T06:11:28.048Z,1011.73
2022-10-23T06:12:30.967Z,1011.69
2022-10-23T06:13:33.857Z,1011.66
2022-10-23T06:15:08.658Z,1011.67
2022-10-23T06:16:15.565Z,1011.62
2022-10-23T06:17:18.670Z,1011.61
2022-10-23T06:18:53.440Z,1011.61
2022-10-23T06:19:56.297Z,1011.60
2022-10-23T06:20:59.253Z,1011.61
2022-10-23T06:22:34.012Z,1011.60
2022-10-23T06:23:37.531Z,1011.56
2022-10-23T06:24:40.709Z,1011.56
2022-10-23T06:26:15.260Z,1011.54
2022-10-23T06:27:17.954Z,1011.54
2022-10-23T06:28:25.459Z,1011.56
2022-10-23T06:30:00.231Z,1011.60
2022-10-23T06:31:03.056Z,1011.57
2022-10-23T06:32:05.819Z,1011.58
2022-10-23T06:33:41.044Z,1011.54
2022-10-23T06:34:43.752Z,1011.54
2022-10-23T06:35:46.613Z,1011.55
2022-10-23T06:37:21.305Z,1011.55
2022-10-23T06:38:24.208Z,1011.56
2022-10-23T06:39:29.821Z,1011.51
2022-10-23T06:41:06.997Z,1011.49
2022-10-23T06:42:10.250Z,1011.51
2022-10-23T06:43:13.284Z,1011.49
2022-10-23T06:44:48.159Z,1011.52
2022-10-23T06:45:58.124Z,1011.51
2022-10-23T06:47:00.942Z,1011.43
2022-10-23T06:48:36.707Z,1011.37
2022-10-23T06:49:40.038Z,1011.40
2022-10-23T06:50:42.948Z,1011.39
2022-10-23T06:52:51.862Z,1011.44
2022-10-23T06:53:54.740Z,1011.41
2022-10-23T06:54:57.539Z,1011.46
2022-10-23T06:56:36.127Z,1011.44
2022-10-23T06:57:39.051Z,1011.43
2022-10-23T06:58:42.872Z,1011.37
2022-10-23T07:00:23.982Z,1011.33
2022-10-23T07:01:28.435Z,1011.33
2022-10-23T07:02:32.675Z,1011.41
2022-10-23T07:04:08.113Z,1011.34
2022-10-23T07:05:15.644Z,1011.36
2022-10-23T07:06:18.809Z,1011.41
2022-10-23T07:07:53.673Z,1011.42
2022-10-23T07:08:56.624Z,1011.40
2022-10-23T07:09:59.669Z,1011.44
2022-10-23T07:11:34.724Z,1011.42
2022-10-23T07:12:37.593Z,1011.39
2022-10-23T07:13:40.978Z,1011.41
2022-10-23T07:15:15.789Z,1011.39
2022-10-23T07:16:18.716Z,1011.41
2022-10-23T07:17:21.819Z,1011.42
2022-10-23T07:18:56.369Z,1011.46
2022-10-23T07:19:59.209Z,1011.44
2022-10-23T07:21:02.037Z,1011.48
2022-10-23T07:22:36.714Z,1011.43
2022-10-23T07:23:39.944Z,1011.38
2022-10-23T07:24:42.831Z,1011.35
2022-10-23T07:26:17.487Z,1011.25
2022-10-23T07:27:20.193Z,1011.25
2022-10-23T07:28:23.049Z,1011.19
2022-10-23T07:29:57.907Z,1011.19
2022-10-23T07:31:00.873Z,1011.19
2022-10-23T07:32:03.647Z,1011.18
2022-10-23T07:33:38.309Z,1011.14
2022-10-23T07:34:41.360Z,1011.15
2022-10-23T07:35:49.742Z,1011.18
2022-10-23T07:37:24.822Z,1011.21
2022-10-23T07:38:28.283Z,1011.22
2022-10-23T07:39:31.246Z,1011.20
2022-10-23T07:41:08.938Z,1011.21
2022-10-23T07:42:14.528Z,1011.22
2022-10-23T07:43:17.440Z,1011.25
2022-10-23T07:44:52.343Z,1011.24
2022-10-23T07:45:55.143Z,1011.22
2022-10-23T07:46:58.115Z,1011.18
2022-10-23T07:48:33.441Z,1011.14
2022-10-23T07:49:36.217Z,1011.12
2022-10-23T07:50:39.145Z,1011.08
2022-10-23T07:52:14.819Z,1011.09
2022-10-23T07:53:22.159Z,1011.05
2022-10-23T07:54:25.177Z,1011.07
2022-10-23T07:55:59.909Z,1011.08
2022-10-23T07:57:02.837Z,1011.07
2022-10-23T07:58:05.898Z,1011.10
2022-10-23T07:59:43.862Z,1011.10
2022-10-23T08:01:27.786Z,1011.04
2022-10-23T08:02:31.477Z,1011.05
2022-10-23T08:04:06.935Z,1011.10
2022-10-23T08:05:09.901Z,1011.06
2022-10-23T08:06:12.984Z,1011.06
2022-10-23T08:07:47.616Z,1011.08
2022-10-23T08:08:50.563Z,1011.04
2022-10-23T08:09:58.188Z,1011.03
2022-10-23T08:11:32.888Z,1011.00
2022-10-23T08:12:35.981Z,1011.02
2022-10-23T08:13:39.584Z,1010.99
2022-10-23T08:15:14.180Z,1010.99
2022-10-23T08:16:17.120Z,1011.01
2022-10-23T08:17:19.873Z,1010.98
2022-10-23T08:18:58.005Z,1010.98
2022-10-23T08:20:00.782Z,1010.97
2022-10-23T08:21:03.824Z,1010.93
2022-10-23T08:22:38.308Z,1010.95
2022-10-23T08:23:41.446Z,1010.97
2022-10-23T08:24:44.294Z,1010.92
2022-10-23T08:26:24.046Z,1010.92
2022-10-23T08:27:26.951Z,1010.97
2022-10-23T08:28:30.522Z,1010.95
2022-10-23T08:30:05.212Z,1010.91
2022-10-23T08:31:08.106Z,1010.98
2022-10-23T08:32:10.983Z,1010.98
2022-10-23T08:33:46.079Z,1010.96
2022-10-23T08:34:48.927Z,1010.95
2022-10-23T08:35:51.633Z,1010.92
2022-10-23T08:37:26.347Z,1010.86
2022-10-23T08:38:29.591Z,1010.86
2022-10-23T08:39:32.627Z,1010.87
2022-10-23T08:41:11.244Z,1010.84
2022-10-23T08:42:13.995Z,1010.83
2022-10-23T08:43:16.898Z,1010.77
2022-10-23T08:44:51.982Z,1010.77
2022-10-23T08:45:54.918Z,1010.74
2022-10-23T08:47:01.081Z,1010.77
2022-10-23T08:48:35.719Z,1010.76
2022-10-23T08:49:38.656Z,1010.77
2022-10-23T08:50:41.492Z,1010.73
2022-10-23T08:52:19.805Z,1010.71
2022-10-23T08:53:22.706Z,1010.67
2022-10-23T08:54:25.703Z,1010.64
2022-10-23T08:56:00.326Z,1010.60
2022-10-23T08:57:03.316Z,1010.57
2022-10-23T08:58:06.202Z,1010.56
2022-10-23T08:59:40.986Z,1010.56
2022-10-23T09:00:23.105Z,1010.56
2022-10-23T09:01:26.733Z,1010.47
2022-10-23T09:02:30.737Z,1010.52
2022-10-23T09:04:06.190Z,1010.46
2022-10-23T09:05:09.105Z,1010.44
2022-10-23T09:06:11.825Z,1010.41
2022-10-23T09:07:47.361Z,1010.34
2022-10-23T09:08:50.291Z,1010.36
2022-10-23T09:09:53.156Z,1010.32
2022-10-23T09:11:27.782Z,1010.31
2022-10-23T09:12:30.497Z,1010.31
2022-10-23T09:13:33.443Z,1010.29
2022-10-23T09:15:08.207Z,1010.25
2022-10-23T09:16:11.083Z,1010.21
2022-10-23T09:18:49.621Z,1010.25
2022-10-23T09:19:58.102Z,1010.25
2022-10-23T09:21:00.899Z,1010.25
2022-10-23T09:22:35.884Z,1010.26
2022-10-23T09:23:38.879Z,1010.23
2022-10-23T09:24:41.960Z,1010.21
2022-10-23T09:26:23.492Z,1010.19
2022-10-23T09:27:26.452Z,1010.21
2022-10-23T09:28:29.757Z,1010.20
2022-10-23T09:30:04.797Z,1010.19
2022-10-23T09:31:07.794Z,1010.19
2022-10-23T09:32:10.522Z,1010.18
2022-10-23T09:33:45.513Z,1010.08
2022-10-23T09:34:48.292Z,1010.10
2022-10-23T09:35:51.235Z,1010.08
2022-10-23T09:37:27.232Z,1010.04
2022-10-23T09:38:30.794Z,1010.03
2022-10-23T09:39:33.771Z,1010.00
2022-10-23T09:41:08.809Z,1009.98
2022-10-23T09:42:11.777Z,1010.00
2022-10-23T09:43:14.505Z,1009.94
2022-10-23T09:44:49.245Z,1009.92
2022-10-23T09:45:51.961Z,1009.93
2022-10-23T09:46:55.004Z,1009.92
2022-10-23T09:48:30.463Z,1009.88
2022-10-23T09:49:33.705Z,1009.87
2022-10-23T09:50:36.575Z,1009.86
2022-10-23T09:52:11.249Z,1009.93
2022-10-23T09:53:14.278Z,1009.91
2022-10-23T09:54:17.125Z,1009.92
2022-10-23T09:55:51.777Z,1009.90
2022-10-23T09:56:54.956Z,1009.87
2022-10-23T09:57:58.583Z,1009.85
2022-10-23T09:59:33.198Z,1009.84
2022-10-23T10:00:23.900Z,1009.86
2022-10-23T10:01:27.667Z,1009.85
2022-10-23T10:02:31.548Z,1009.88
2022-10-23T10:04:06.234Z,1009.83
2022-10-23T10:05:09.038Z,1009.83
2022-10-23T10:06:11.885Z,1009.80
2022-10-23T10:07:48.608Z,1009.74
2022-10-23T10:08:51.628Z,1009.76
2022-10-23T10:09:54.667Z,1009.74
2022-10-23T10:11:29.421Z,1009.70
2022-10-23T10:12:32.372Z,1009.67
2022-10-23T10:13:35.457Z,1009.60
2022-10-23T10:15:10.190Z,1009.55
2022-10-23T10:16:13.008Z,1009.52
2022-10-23T10:17:16.038Z,1009.52
2022-10-23T10:18:50.732Z,1009.68
2022-10-23T10:19:53.838Z,1009.65
2022-10-23T10:21:02.711Z,1009.64
2022-10-23T10:22:37.550Z,1009.58
2022-10-23T10:23:40.557Z,1009.57
2022-10-23T10:24:43.409Z,1009.55
2022-10-23T10:26:18.087Z,1009.59
2022-10-23T10:27:21.212Z,1009.56
2022-10-23T10:28:24.008Z,1009.60
2022-10-23T10:29:58.909Z,1009.56
2022-10-23T10:31:01.947Z,1009.49
2022-10-23T10:32:04.741Z,1009.51
2022-10-23T10:33:39.713Z,1009.49
2022-10-23T10:34:42.782Z,1009.38
2022-10-23T10:35:45.727Z,1009.36
2022-10-23T10:37:20.948Z,1009.37
2022-10-23T10:38:24.045Z,1009.39
2022-10-23T10:39:26.964Z,1009.39
2022-10-23T10:41:02.108Z,1009.43
2022-10-23T10:42:04.767Z,1009.44
2022-10-23T10:43:07.637Z,1009.47
2022-10-23T10:44:42.554Z,1009.48
2022-10-23T10:45:45.184Z,1009.50
2022-10-23T10:46:48.366Z,1009.46
2022-10-23T10:48:23.195Z,1009.37
2022-10-23T10:49:26.223Z,1009.33
2022-10-23T10:50:29.118Z,1009.26
2022-10-23T10:52:03.829Z,1009.25
2022-10-23T10:53:06.589Z,1009.21
2022-10-23T10:54:09.605Z,1009.19
2022-10-23T10:55:44.233Z,1009.11
2022-10-23T10:56:47.297Z,1009.08
2022-10-23T10:57:50.431Z,1009.03
2022-10-23T10:59:28.989Z,1008.97
2022-10-23T11:00:23.548Z,1008.95
2022-10-23T11:01:27.504Z,1008.92
2022-10-23T11:02:31.657Z,1008.87
2022-10-23T11:04:06.365Z,1008.88
2022-10-23T11:05:09.147Z,1008.94
2022-10-23T11:06:11.884Z,1008.93
2022-10-23T11:07:47.449Z,1008.92
2022-10-23T11:09:26.075Z,1008.88
2022-10-23T11:10:28.947Z,1008.88
2022-10-23T11:12:03.822Z,1008.83
2022-10-23T11:13:06.649Z,1008.76
2022-10-23T11:14:09.556Z,1008.71
2022-10-23T11:15:44.407Z,1008.71
2022-10-23T11:16:47.410Z,1008.66
2022-10-23T11:17:50.921Z,1008.57
2022-10-23T11:19:25.688Z,1008.57
2022-10-23T11:20:28.760Z,1008.57
2022-10-23T11:21:31.705Z,1008.52
2022-10-23T11:23:06.228Z,1008.48
2022-10-23T11:25:13.251Z,1008.56
2022-10-23T11:26:48.001Z,1008.55
2022-10-23T11:27:51.353Z,1008.50
2022-10-23T11:29:02.523Z,1008.45
2022-10-23T11:30:37.353Z,1008.36
2022-10-23T11:31:40.313Z,1008.35
2022-10-23T11:32:45.931Z,1008.30
2022-10-23T11:34:20.579Z,1008.23
2022-10-23T11:35:23.447Z,1008.18
2022-10-23T11:36:26.354Z,1008.15
2022-10-23T11:38:01.189Z,1008.17
2022-10-23T11:39:04.006Z,1008.13
2022-10-23T11:40:06.900Z,1008.08
2022-10-23T11:41:42.944Z,1008.08
2022-10-23T11:42:46.561Z,1008.00
2022-10-23T11:43:49.697Z,1008.01
2022-10-23T11:45:24.464Z,1007.90
2022-10-23T11:46:27.389Z,1007.88
2022-10-23T11:47:32.017Z,1007.83
2022-10-23T11:49:10.059Z,1007.75
2022-10-23T11:50:13.204Z,1007.80
2022-10-23T11:51:16.580Z,1007.76
2022-10-23T11:53:19.370Z,1007.75
2022-10-23T11:54:22.620Z,1007.75
2022-10-23T11:55:25.405Z,1007.72
2022-10-23T11:57:00.203Z,1007.74
2022-10-23T11:58:07.892Z,1007.80
2022-10-23T11:59:10.656Z,1007.79
2022-10-23T12:00:23.153Z,1007.76
2022-10-23T12:01:26.014Z,1007.75
2022-10-23T12:02:29.910Z,1007.73
2022-10-23T12:04:05.974Z,1007.72
2022-10-23T12:05:08.959Z,1007.70
2022-10-23T12:06:11.895Z,1007.65
2022-10-23T12:07:47.767Z,1007.61
2022-10-23T12:08:50.843Z,1007.56
2022-10-23T12:09:53.902Z,1007.45
2022-10-23T12:11:33.337Z,1007.40
2022-10-23T12:12:36.341Z,1007.40
2022-10-23T12:13:39.364Z,1007.40
2022-10-23T12:15:14.420Z,1007.33
2022-10-23T12:16:17.276Z,1007.34
2022-10-23T12:17:20.084Z,1007.32
2022-10-23T12:18:55.142Z,1007.27
2022-10-23T12:19:58.140Z,1007.32
2022-10-23T12:21:01.142Z,1007.34
2022-10-23T12:22:36.508Z,1007.21
2022-10-23T12:23:42.167Z,1007.20
2022-10-23T12:24:47.664Z,1007.18
2022-10-23T12:26:22.296Z,1007.26
2022-10-23T12:27:25.149Z,1007.19
2022-10-23T12:28:28.432Z,1007.21
2022-10-23T12:30:03.215Z,1007.18
2022-10-23T12:31:06.165Z,1007.17
2022-10-23T12:32:09.123Z,1007.17
2022-10-23T12:33:43.915Z,1007.14
2022-10-23T12:34:46.909Z,1007.17
2022-10-23T12:35:49.871Z,1007.11
2022-10-23T12:37:24.592Z,1007.15
2022-10-23T12:38:31.305Z,1007.07
2022-10-23T12:39:36.946Z,1007.15
2022-10-23T12:41:11.862Z,1007.14
2022-10-23T12:42:14.803Z,1007.14
2022-10-23T12:43:17.901Z,1007.12
2022-10-23T12:44:52.661Z,1007.06
2022-10-23T12:45:55.613Z,1006.95
2022-10-23T12:47:03.889Z,1006.98
2022-10-23T12:48:38.945Z,1006.87
2022-10-23T12:49:41.939Z,1006.84
2022-10-23T12:50:44.870Z,1006.86
2022-10-23T12:52:19.688Z,1006.84
2022-10-23T12:53:22.610Z,1006.86
2022-10-23T12:54:25.628Z,1006.85
2022-10-23T12:57:03.332Z,1006.89
2022-10-23T12:58:06.147Z,1006.91
2022-10-23T12:59:40.953Z,1006.89
2022-10-23T13:00:23.886Z,1006.85
2022-10-23T13:01:27.269Z,1006.88
2022-10-23T13:02:39.766Z,1006.86
2022-10-23T13:04:14.716Z,1006.80
2022-10-23T13:05:17.754Z,1006.81
2022-10-23T13:06:21.195Z,1006.79
2022-10-23T13:07:56.625Z,1006.79
2022-10-23T13:08:59.847Z,1006.75
2022-10-23T13:10:02.941Z,1006.73
2022-10-23T13:11:37.777Z,1006.74
2022-10-23T13:12:41.105Z,1006.68
2022-10-23T13:13:44.172Z,1006.67
2022-10-23T13:15:18.872Z,1006.62
2022-10-23T13:16:21.849Z,1006.56
2022-10-23T13:17:24.822Z,1006.52
2022-10-23T13:19:00.243Z,1006.51
2022-10-23T13:20:03.229Z,1006.55
2022-10-23T13:21:06.317Z,1006.50
2022-10-23T13:22:41.352Z,1006.51
2022-10-23T13:23:50.963Z,1006.45
2022-10-23T13:24:53.743Z,1006.46
2022-10-23T13:26:28.550Z,1006.43
2022-10-23T13:27:31.623Z,1006.44
2022-10-23T13:28:35.031Z,1006.41
2022-10-23T13:30:15.477Z,1006.38
2022-10-23T13:31:18.558Z,1006.36
2022-10-23T13:32:21.663Z,1006.35
2022-10-23T13:33:56.261Z,1006.30
2022-10-23T13:35:29.068Z,1006.29
2022-10-23T13:36:32.117Z,1006.32
2022-10-23T13:38:11.369Z,1006.26
2022-10-23T13:39:14.594Z,1006.24
2022-10-23T13:40:17.753Z,1006.26
2022-10-23T13:41:52.509Z,1006.20
2022-10-23T13:42:55.906Z,1006.18
2022-10-23T13:43:58.733Z,1006.16
2022-10-23T13:45:33.643Z,1006.16
2022-10-23T13:46:36.653Z,1006.10
2022-10-23T13:47:39.604Z,1006.07
2022-10-23T13:49:14.923Z,1006.06
2022-10-23T13:50:18.085Z,1005.98
2022-10-23T13:51:21.112Z,1005.98
2022-10-23T13:53:00.722Z,1005.93
2022-10-23T13:54:03.558Z,1005.92
2022-10-23T13:55:06.574Z,1005.89
2022-10-23T13:56:45.428Z,1005.83
2022-10-23T13:57:48.685Z,1005.85
2022-10-23T13:58:51.471Z,1005.81
2022-10-23T14:00:23.508Z,1005.77
2022-10-23T14:01:26.985Z,1005.72
2022-10-23T14:02:31.291Z,1005.75
2022-10-23T14:04:06.546Z,1005.69
2022-10-23T14:05:09.455Z,1005.65
2022-10-23T14:06:12.595Z,1005.63
2022-10-23T14:07:48.354Z,1005.59
2022-10-23T14:08:51.098Z,1005.56
2022-10-23T14:09:56.557Z,1005.57
2022-10-23T14:11:31.742Z,1005.56
2022-10-23T14:12:34.667Z,1005.56
2022-10-23T14:13:38.441Z,1005.56
2022-10-23T14:15:13.290Z,1005.53
2022-10-23T14:16:16.050Z,1005.56
2022-10-23T14:17:18.913Z,1005.55
2022-10-23T14:19:00.306Z,1005.52
2022-10-23T14:20:05.812Z,1005.43
2022-10-23T14:21:13.711Z,1005.44
2022-10-23T14:22:48.972Z,1005.39
2022-10-23T14:23:51.979Z,1005.42
2022-10-23T14:24:55.153Z,1005.37
2022-10-23T14:26:30.161Z,1005.36
2022-10-23T14:27:32.871Z,1005.33
2022-10-23T14:28:35.966Z,1005.33
2022-10-23T14:30:20.407Z,1005.26
2022-10-23T14:31:23.261Z,1005.29
2022-10-23T14:32:26.044Z,1005.26
2022-10-23T14:34:01.763Z,1005.24
2022-10-23T14:35:05.089Z,1005.27
2022-10-23T14:36:07.957Z,1005.30
2022-10-23T14:38:05.218Z,1005.19
2022-10-23T14:39:07.971Z,1005.20
2022-10-23T14:40:10.951Z,1005.21
2022-10-23T14:41:45.763Z,1005.14
2022-10-23T14:42:48.754Z,1005.11
2022-10-23T14:43:51.659Z,1005.10
2022-10-23T14:45:26.686Z,1005.12
2022-10-23T14:46:29.397Z,1005.14
2022-10-23T14:47:32.387Z,1005.08
2022-10-23T14:49:13.549Z,1005.04
2022-10-23T14:50:16.614Z,1005.04
2022-10-23T14:51:19.703Z,1005.01
2022-10-23T14:52:54.494Z,1005.10
2022-10-23T14:54:02.108Z,1005.09
2022-10-23T14:55:04.987Z,1004.97
2022-10-23T14:56:39.623Z,1004.95
2022-10-23T14:57:42.953Z,1004.94
2022-10-23T14:58:46.240Z,1004.90
2022-10-23T15:00:23.027Z,1004.89